createdAt,value
2018-07-15T00:04:19.541Z,12.00
2018-07-15T00:09:23.183Z,13.75
2018-07-15T00:14:26.913Z,14.00
2018-07-15T00:19:30.692Z,13.00
2018-07-15T00:24:34.387Z,13.80
2018-07-15T00:29:38.098Z,13.00
2018-07-15T00:34:41.835Z,12.00
2018-07-15T00:39:45.504Z,14.20
2018-07-15T00:44:49.227Z,10.00
2018-07-15T00:49:52.981Z,11.60
2018-07-15T00:54:56.643Z,13.60
2018-07-15T01:00:00.574Z,13.75
2018-07-15T01:05:06.042Z,14.75
2018-07-15T01:10:09.693Z,13.20
2018-07-15T01:15:13.426Z,14.40
2018-07-15T01:20:17.106Z,12.80
2018-07-15T01:25:20.733Z,15.00
2018-07-15T01:30:24.397Z,14.25
2018-07-15T01:35:28.050Z,12.00
2018-07-15T01:40:31.775Z,13.50
2018-07-15T01:45:35.539Z,11.40
2018-07-15T01:50:39.179Z,14.40
2018-07-15T01:55:42.918Z,12.00
2018-07-15T02:00:46.610Z,14.50
2018-07-15T02:05:50.269Z,11.25
2018-07-15T02:10:53.941Z,15.25
2018-07-15T02:15:57.761Z,13.60
2018-07-15T02:21:01.419Z,11.80
2018-07-15T02:26:05.174Z,15.50
2018-07-15T02:31:08.845Z,13.25
2018-07-15T02:36:12.518Z,12.80
2018-07-15T02:41:16.321Z,16.20
2018-07-15T02:46:20.090Z,10.50
2018-07-15T02:51:23.738Z,13.00
2018-07-15T02:56:27.404Z,10.60
2018-07-15T03:01:31.049Z,14.25
2018-07-15T03:06:34.691Z,14.25
2018-07-15T03:11:38.410Z,12.20
2018-07-15T03:16:42.142Z,14.50
2018-07-15T03:21:45.868Z,13.75
2018-07-15T03:26:49.790Z,12.00
2018-07-15T03:31:53.477Z,12.60
2018-07-15T03:36:57.210Z,12.50
2018-07-15T03:42:01.066Z,13.25
2018-07-15T03:47:04.748Z,9.75
2018-07-15T03:52:08.472Z,13.00
2018-07-15T03:57:12.190Z,12.00
2018-07-15T04:02:15.848Z,11.00
2018-07-15T04:07:19.619Z,13.40
2018-07-15T04:12:23.346Z,11.80
2018-07-15T04:17:27.102Z,11.50
2018-07-15T04:22:30.791Z,15.00
2018-07-15T04:27:34.480Z,13.20
2018-07-15T04:32:38.211Z,13.20
2018-07-15T04:37:42.011Z,16.50
2018-07-15T04:42:45.682Z,16.00
2018-07-15T04:47:49.923Z,12.80
2018-07-15T04:52:53.784Z,15.50
2018-07-15T04:57:57.447Z,14.80
2018-07-15T05:03:01.150Z,15.50
2018-07-15T05:08:04.891Z,13.00
2018-07-15T05:13:08.534Z,15.80
2018-07-15T05:18:12.169Z,12.75
2018-07-15T05:23:15.847Z,13.75
2018-07-15T05:28:19.471Z,13.40
2018-07-15T05:33:23.231Z,18.00
2018-07-15T05:38:26.887Z,16.50
2018-07-15T05:43:30.582Z,11.80
2018-07-15T05:48:34.289Z,10.50
2018-07-15T05:53:38.003Z,12.00
2018-07-15T05:58:41.717Z,12.20
2018-07-15T06:03:45.458Z,9.40
2018-07-15T06:08:49.095Z,12.25
2018-07-15T06:13:52.795Z,8.75
2018-07-15T06:18:56.452Z,6.80
2018-07-15T06:24:00.143Z,9.00
2018-07-15T06:29:03.875Z,5.60
2018-07-15T06:34:07.585Z,4.60
2018-07-15T06:39:11.300Z,7.25
2018-07-15T06:44:15.014Z,6.75
2018-07-15T06:49:18.778Z,7.00
2018-07-15T06:54:22.470Z,5.60
2018-07-15T06:59:26.290Z,6.75
2018-07-15T07:04:29.918Z,8.75
2018-07-15T07:09:33.606Z,6.00
2018-07-15T07:14:37.342Z,7.25
2018-07-15T07:19:41.153Z,10.00
2018-07-15T07:24:44.820Z,7.00
2018-07-15T07:29:48.462Z,5.80
2018-07-15T07:34:52.147Z,8.00
2018-07-15T07:39:55.751Z,7.20
2018-07-15T07:44:59.529Z,6.20
2018-07-15T07:50:05.718Z,7.75
2018-07-15T07:55:09.408Z,5.40
2018-07-15T08:00:13.081Z,6.60
2018-07-15T08:05:16.834Z,5.25
2018-07-15T08:10:20.508Z,6.50
2018-07-15T08:15:24.247Z,5.20
2018-07-15T08:20:27.843Z,5.75
2018-07-15T08:25:31.636Z,6.25
2018-07-15T08:30:46.505Z,7.20
2018-07-15T08:35:50.170Z,5.00
2018-07-15T08:40:53.876Z,7.00
2018-07-15T08:45:57.598Z,6.25
2018-07-15T08:51:01.530Z,8.20
2018-07-15T08:56:05.216Z,6.20
2018-07-15T09:01:08.970Z,7.50
2018-07-15T09:06:12.710Z,6.00
2018-07-15T09:11:16.493Z,8.00
2018-07-15T09:16:20.655Z,6.50
2018-07-15T09:21:25.081Z,6.60
2018-07-15T09:26:28.740Z,5.00
2018-07-15T09:31:32.418Z,5.60
2018-07-15T09:36:36.146Z,7.00
2018-07-15T09:41:39.863Z,6.25
2018-07-15T09:46:43.619Z,6.00
2018-07-15T09:51:47.301Z,6.00
2018-07-15T09:56:50.972Z,8.00
2018-07-15T10:01:54.688Z,4.40
2018-07-15T10:06:58.378Z,7.40
2018-07-15T10:12:02.770Z,11.50
2018-07-15T10:17:06.527Z,10.40
2018-07-15T10:22:10.514Z,9.00
2018-07-15T10:27:14.291Z,8.80
2018-07-15T10:32:17.956Z,8.00
2018-07-15T10:37:21.990Z,10.60
2018-07-15T10:42:25.674Z,8.60
2018-07-15T10:47:29.395Z,12.50
2018-07-15T10:52:33.125Z,12.40
2018-07-15T10:57:36.915Z,13.75
2018-07-15T11:02:40.635Z,11.75
2018-07-15T11:07:45.021Z,9.20
2018-07-15T11:12:48.702Z,13.80
2018-07-15T11:17:52.403Z,10.60
2018-07-15T11:22:56.049Z,14.00
2018-07-15T11:28:00.715Z,12.00
2018-07-15T11:33:04.594Z,13.60
2018-07-15T11:38:08.323Z,13.00
2018-07-15T11:43:11.996Z,9.00
2018-07-15T11:48:15.880Z,10.40
2018-07-15T11:53:19.539Z,12.00
2018-07-15T11:58:23.350Z,12.00
2018-07-15T12:03:27.033Z,11.00
2018-07-15T12:08:30.707Z,11.00
2018-07-15T12:13:34.423Z,15.00
2018-07-15T12:18:38.227Z,12.75
2018-07-15T12:23:42.236Z,11.25
2018-07-15T12:28:47.243Z,12.50
2018-07-15T12:33:50.993Z,13.00
2018-07-15T12:38:55.502Z,15.80
2018-07-15T12:43:59.208Z,13.00
2018-07-15T12:49:02.872Z,17.25
2018-07-15T12:54:06.778Z,16.60
2018-07-15T12:59:11.463Z,14.00
2018-07-15T13:04:15.148Z,16.50
2018-07-15T13:09:18.880Z,14.00
2018-07-15T13:14:22.542Z,14.60
2018-07-15T13:19:26.254Z,20.50
2018-07-15T13:24:29.980Z,16.75
2018-07-15T13:29:33.859Z,18.00
2018-07-15T13:34:37.582Z,16.60
2018-07-15T13:39:41.287Z,22.25
2018-07-15T13:44:44.924Z,18.00
2018-07-15T13:49:48.623Z,19.20
2018-07-15T13:54:52.322Z,17.25
2018-07-15T13:59:56.074Z,17.25
2018-07-15T14:04:59.792Z,24.80
2018-07-15T14:10:04.885Z,21.50
2018-07-15T14:15:08.651Z,16.60
2018-07-15T14:20:12.254Z,13.00
2018-07-15T14:25:15.983Z,12.80
2018-07-15T14:30:19.646Z,13.50
2018-07-15T14:35:23.288Z,16.00
2018-07-15T14:40:27.148Z,16.00
2018-07-15T14:45:30.894Z,16.00
2018-07-15T14:50:34.498Z,11.00
2018-07-15T14:55:38.820Z,10.00
2018-07-15T15:00:42.516Z,14.20
2018-07-15T15:05:46.351Z,31.80
2018-07-15T15:10:50.010Z,23.25
2018-07-15T15:15:53.702Z,21.50
2018-07-15T15:20:57.371Z,17.80
2018-07-15T15:26:00.990Z,16.25
2018-07-15T15:31:04.625Z,19.00
2018-07-15T15:36:08.326Z,14.20
2018-07-15T15:41:12.111Z,17.00
2018-07-15T15:46:15.934Z,14.20
2018-07-15T15:51:19.613Z,17.00
2018-07-15T15:56:23.291Z,14.50
2018-07-15T16:01:27.092Z,14.80
2018-07-15T16:06:30.845Z,13.25
2018-07-15T16:11:34.529Z,13.00
2018-07-15T16:16:38.242Z,12.50
2018-07-15T16:21:41.934Z,13.60
2018-07-15T16:26:45.615Z,15.20
2018-07-15T16:31:49.311Z,14.20
2018-07-15T16:36:52.994Z,11.50
2018-07-15T16:41:56.716Z,11.50
2018-07-15T16:47:00.424Z,11.40
2018-07-15T16:52:04.139Z,10.25
2018-07-15T16:57:07.871Z,7.75
2018-07-15T17:02:11.520Z,10.00
2018-07-15T17:07:15.166Z,12.25
2018-07-15T17:12:18.861Z,8.75
2018-07-15T17:17:23.664Z,12.00
2018-07-15T17:22:27.392Z,10.80
2018-07-15T17:27:31.196Z,8.00
2018-07-15T17:32:35.002Z,10.75
2018-07-15T17:40:31.780Z,8.00
2018-07-15T17:45:35.689Z,6.80
2018-07-15T17:50:39.601Z,10.20
2018-07-15T17:55:43.424Z,10.00
2018-07-15T18:00:47.863Z,6.00
2018-07-15T18:05:51.690Z,6.75
2018-07-15T18:10:55.627Z,6.80
2018-07-15T18:15:59.424Z,7.00
2018-07-15T18:21:03.334Z,4.75
2018-07-15T18:26:07.214Z,7.50
2018-07-15T18:31:11.079Z,6.50
2018-07-15T18:36:14.952Z,5.00
2018-07-15T18:41:18.854Z,4.25
2018-07-15T18:46:22.738Z,4.00
2018-07-15T18:51:26.581Z,4.20
2018-07-15T18:56:30.407Z,4.80
2018-07-15T19:01:34.512Z,5.50
2018-07-15T19:06:38.373Z,5.00
2018-07-15T19:11:42.318Z,4.80
2018-07-15T19:16:46.124Z,3.50
2018-07-15T19:21:49.984Z,3.00
2018-07-15T19:26:53.840Z,4.00
2018-07-15T19:31:58.474Z,6.60
2018-07-15T19:37:02.884Z,4.00
2018-07-15T19:42:07.142Z,5.00
2018-07-15T19:47:10.937Z,3.40
2018-07-15T19:52:14.751Z,3.00
2018-07-15T19:57:19.257Z,5.00
2018-07-15T20:02:23.057Z,6.25
2018-07-15T20:07:27.358Z,3.60
2018-07-15T20:12:31.232Z,4.00
2018-07-15T20:17:35.346Z,5.00
2018-07-15T20:22:39.151Z,4.50
2018-07-15T20:27:43.144Z,3.25
2018-07-15T20:32:47.039Z,3.00
2018-07-15T20:37:50.831Z,3.25
2018-07-15T20:42:54.965Z,4.20
2018-07-15T20:47:59.026Z,4.00
2018-07-15T20:53:02.947Z,3.50
2018-07-15T20:58:06.842Z,4.60
2018-07-15T21:03:10.680Z,3.00
2018-07-15T21:08:14.539Z,4.80
2018-07-15T21:13:18.403Z,3.80
2018-07-15T21:18:22.156Z,4.00
2018-07-15T21:23:26.099Z,4.75
2018-07-15T21:28:29.923Z,7.00
2018-07-15T21:33:33.766Z,4.20
2018-07-15T21:38:37.607Z,3.40
2018-07-15T21:43:41.385Z,4.60
2018-07-15T21:48:45.224Z,4.75
2018-07-15T21:53:49.086Z,5.00
2018-07-15T21:58:52.953Z,3.50
2018-07-15T22:03:56.773Z,3.60
2018-07-15T22:11:13.749Z,3.00
2018-07-15T22:16:17.595Z,3.00
2018-07-15T22:21:21.468Z,3.80
2018-07-15T22:26:25.280Z,3.00
2018-07-15T22:31:29.213Z,3.00
2018-07-15T22:36:33.010Z,3.00
2018-07-15T22:41:37.213Z,4.50
2018-07-15T22:46:41.078Z,3.75
2018-07-15T22:51:44.987Z,5.75
2018-07-15T22:56:48.719Z,3.00
2018-07-15T23:01:52.509Z,2.40
2018-07-15T23:06:56.367Z,4.00
2018-07-15T23:12:00.581Z,4.50
2018-07-15T23:17:05.021Z,3.20
2018-07-15T23:22:09.255Z,4.50
2018-07-15T23:27:14.190Z,4.00
2018-07-15T23:32:18.111Z,3.50
2018-07-15T23:37:22.065Z,4.25
2018-07-15T23:42:25.908Z,4.50
2018-07-15T23:47:29.872Z,5.20
2018-07-15T23:52:33.695Z,3.00
2018-07-15T23:57:37.551Z,4.00
